Time;durP1;ratioP1;P1;durP2;ratioP2;P2;SDS_P1;SDS_P2;PMS_P1;PMS_P2;Temp;Humidity;BMP_temperature;BMP_pressure;BME280_temperature;BME280_humidity;BME280_pressure;Samples;Min_cycle;Max_cycle;Signal;HPM_P1;HPM_P2
2021/11/24 00:00:19;;;;;;;;;9.50;8.25;;;;;21.71;39.56;102600.25;4972122;28;45513;-65
2021/11/24 00:02:46;;;;;;;;;8.25;7.75;;;;;21.70;39.49;102599.41;4970506;28;45439;-65
2021/11/24 00:05:11;;;;;;;;;10.00;9.00;;;;;21.70;39.43;102595.94;4970533;28;45529;-66
2021/11/24 00:07:39;;;;;;;;;8.25;8.00;;;;;21.70;39.55;102594.09;4969164;28;45324;-65
2021/11/24 00:10:05;;;;;;;;;4.50;4.50;;;;;21.70;39.55;102594.09;4974939;28;45436;-66
2021/11/24 00:12:30;;;;;;;;;7.50;6.00;;;;;21.70;39.80;102596.75;4979429;28;45431;-67
2021/11/24 00:14:55;;;;;;;;;11.25;9.25;;;;;21.71;39.57;102590.50;4971421;28;45461;-66
2021/11/24 00:17:21;;;;;;;;;8.75;8.00;;;;;21.59;39.37;102570.38;4970220;28;46247;-67
2021/11/24 00:19:46;;;;;;;;;8.00;8.00;;;;;21.69;39.10;102589.78;4970639;28;45299;-66
2021/11/24 00:22:12;;;;;;;;;9.00;7.00;;;;;21.70;39.54;102591.47;4970862;28;45391;-67
2021/11/24 00:24:38;;;;;;;;;7.00;7.00;;;;;21.61;39.42;102568.44;4972873;28;45549;-67
2021/11/24 00:27:03;;;;;;;;;8.00;7.25;;;;;21.69;39.35;102584.50;4971265;28;46101;-66
2021/11/24 00:29:29;;;;;;;;;7.25;7.25;;;;;21.68;39.04;102580.16;4970556;28;45481;-67
2021/11/24 00:31:54;;;;;;;;;6.25;5.75;;;;;21.69;39.42;102576.56;4970375;28;45336;-66
2021/11/24 00:34:19;;;;;;;;;7.75;6.75;;;;;21.70;39.19;102572.09;4970772;28;45360;-67
2021/11/24 00:36:46;;;;;;;;;6.75;6.00;;;;;21.58;39.27;102545.72;4972071;28;45947;-66
2021/11/24 00:39:11;;;;;;;;;11.75;7.50;;;;;21.69;39.16;102562.47;4969634;28;45621;-67
2021/11/24 00:41:37;;;;;;;;;7.00;6.25;;;;;21.68;39.50;102561.63;4972174;28;45412;-66
2021/11/24 00:44:02;;;;;;;;;9.75;7.25;;;;;21.63;39.13;102551.44;4973457;28;45585;-66
2021/11/24 00:46:28;;;;;;;;;6.75;6.75;;;;;21.68;39.22;102555.47;4971479;28;46098;-67
2021/11/24 00:48:53;;;;;;;;;6.75;6.50;;;;;21.63;39.07;102551.44;4974257;28;45547;-67
2021/11/24 00:51:18;;;;;;;;;7.75;7.00;;;;;21.68;39.12;102547.53;4973373;28;45301;-66
2021/11/24 00:53:44;;;;;;;;;7.25;6.75;;;;;21.67;38.82;102546.72;4972111;28;45214;-66
2021/11/24 00:56:09;;;;;;;;;6.50;6.50;;;;;21.60;39.04;102541.09;4973049;28;46304;-66
2021/11/24 00:58:35;;;;;;;;;9.00;6.25;;;;;21.56;39.02;102530.94;4973194;28;45263;-66
2021/11/24 01:01:00;;;;;;;;;6.00;6.00;;;;;21.65;38.77;102540.69;4973057;28;45543;-66
2021/11/24 01:03:26;;;;;;;;;8.75;7.75;;;;;21.63;38.74;102526.75;4974084;28;45416;-66
2021/11/24 01:05:52;;;;;;;;;8.75;6.00;;;;;21.66;39.08;102536.25;4972811;28;46208;-66
2021/11/24 01:08:18;;;;;;;;;8.50;6.00;;;;;21.64;38.82;102528.44;4972804;28;45494;-67
2021/11/24 01:10:44;;;;;;;;;6.75;5.25;;;;;21.65;39.08;102531.94;4973101;28;45297;-66
2021/11/24 01:13:12;;;;;;;;;6.75;6.75;;;;;21.64;38.69;102533.75;4973285;28;45339;-66
2021/11/24 01:15:37;;;;;;;;;6.50;6.50;;;;;21.65;39.01;102532.75;4974572;28;47050;-67
2021/11/24 01:18:03;;;;;;;;;6.25;5.50;;;;;21.63;38.76;102524.94;4972748;28;45435;-66
2021/11/24 01:20:29;;;;;;;;;7.50;6.00;;;;;21.61;39.15;102518.09;4972633;28;45375;-66
2021/11/24 01:22:54;;;;;;;;;6.75;6.75;;;;;21.54;38.51;102507.25;4972986;28;45438;-66
2021/11/24 01:25:20;;;;;;;;;6.00;5.25;;;;;21.58;38.93;102513.94;4970982;28;45513;-67
2021/11/24 01:27:46;;;;;;;;;8.25;6.00;;;;;21.61;38.78;102516.31;4974460;28;45315;-66
2021/11/24 01:30:12;;;;;;;;;7.50;6.25;;;;;21.61;38.62;102516.31;4971877;28;45553;-66
2021/11/24 01:32:38;;;;;;;;;5.75;5.75;;;;;21.62;38.76;102510.00;4970228;28;45478;-66
2021/11/24 01:35:05;;;;;;;;;5.75;5.50;;;;;21.62;38.48;102511.84;4973005;28;46241;-67
2021/11/24 01:37:33;;;;;;;;;5.00;5.00;;;;;21.61;38.62;102508.34;4972757;28;45448;-66
2021/11/24 01:39:58;;;;;;;;;6.00;6.00;;;;;21.52;38.76;102488.81;4975217;28;45268;-67
2021/11/24 01:42:23;;;;;;;;;5.75;5.75;;;;;21.60;38.53;102498.72;4972694;28;45428;-67
2021/11/24 01:44:49;;;;;;;;;6.00;6.00;;;;;21.61;38.32;102499.56;4972302;28;46202;-66
2021/11/24 01:47:14;;;;;;;;;5.75;5.75;;;;;21.60;38.39;102498.72;4972709;28;45500;-66
2021/11/24 01:49:39;;;;;;;;;7.25;7.25;;;;;21.62;38.41;102495.97;4972720;28;45600;-66
2021/11/24 01:52:05;;;;;;;;;6.75;6.75;;;;;21.61;38.60;102495.13;4971248;28;45581;-66
2021/11/24 01:54:31;;;;;;;;;6.00;6.00;;;;;21.61;38.20;102481.88;4974464;28;45999;-65
2021/11/24 01:56:58;;;;;;;;;6.00;6.00;;;;;21.62;38.38;102485.38;4972566;28;45219;-65
2021/11/24 01:59:26;;;;;;;;;5.75;5.75;;;;;21.61;38.42;102478.38;4990756;28;45464;-67
2021/11/24 02:01:53;;;;;;;;;6.75;6.75;;;;;21.62;38.17;102478.22;4971300;28;45335;-66
2021/11/24 02:04:18;;;;;;;;;6.00;5.75;;;;;21.61;38.17;102473.94;4970902;28;46294;-66
2021/11/24 02:06:44;;;;;;;;;5.50;5.00;;;;;21.61;38.25;102478.38;4974062;28;45268;-67
2021/11/24 02:09:11;;;;;;;;;7.00;7.00;;;;;21.62;38.43;102470.28;4973156;28;45541;-66
2021/11/24 02:11:40;;;;;;;;;8.75;7.00;;;;;21.61;38.20;102473.94;4970673;28;46103;-63
2021/11/24 02:14:06;;;;;;;;;4.50;4.50;;;;;21.60;38.26;102474.03;4972247;28;45367;-66
2021/11/24 02:16:32;;;;;;;;;5.75;5.75;;;;;21.60;38.23;102474.88;4972169;28;45453;-66
2021/11/24 02:18:57;;;;;;;;;5.75;5.00;;;;;21.49;38.25;102446.72;4971376;28;45373;-67
2021/11/24 02:21:22;;;;;;;;;5.25;5.25;;;;;21.60;37.98;102466.09;4974107;28;45656;-67
2021/11/24 02:23:48;;;;;;;;;5.25;5.00;;;;;21.57;38.05;102453.97;4972198;28;45478;-66
2021/11/24 02:26:13;;;;;;;;;5.00;5.00;;;;;21.57;37.74;102453.16;4970857;28;45449;-66
2021/11/24 02:28:39;;;;;;;;;5.50;5.50;;;;;21.59;37.83;102454.69;4972417;28;45304;-65
2021/11/24 02:31:05;;;;;;;;;8.00;6.75;;;;;21.60;38.17;102458.16;4972374;28;45344;-67
2021/11/24 02:33:31;;;;;;;;;7.25;5.00;;;;;21.59;38.27;102449.41;4974098;28;45850;-65
2021/11/24 02:35:56;;;;;;;;;6.75;5.75;;;;;21.59;37.94;102456.50;4971962;28;45669;-65
2021/11/24 02:38:21;;;;;;;;;6.75;5.25;;;;;21.58;37.82;102446.88;4972131;28;45624;-64
2021/11/24 02:40:47;;;;;;;;;3.50;3.00;;;;;21.58;37.92;102446.88;4971834;28;45470;-66
2021/11/24 02:43:12;;;;;;;;;4.75;4.75;;;;;21.58;38.08;102445.06;4970955;28;45458;-66
2021/11/24 02:45:38;;;;;;;;;6.00;6.00;;;;;21.57;38.09;102437.25;4973820;28;45588;-66
2021/11/24 02:48:04;;;;;;;;;4.00;4.00;;;;;21.58;38.09;102436.28;4972107;28;45308;-66
2021/11/24 02:50:30;;;;;;;;;5.00;5.00;;;;;21.56;38.11;102431.13;4970755;28;45373;-67
2021/11/24 02:52:56;;;;;;;;;5.00;5.00;;;;;21.57;37.92;102431.97;4971863;28;46286;-66
2021/11/24 02:55:22;;;;;;;;;6.00;6.00;;;;;21.56;38.26;102431.13;4971425;28;45385;-65
2021/11/24 02:57:51;;;;;;;;;6.75;6.00;;;;;21.56;37.72;102419.69;4973608;28;45447;-66
2021/11/24 03:00:22;;;;;;;;;4.25;4.25;;;;;21.56;38.12;102423.19;4972909;28;45629;-66
2021/11/24 03:02:48;;;;;;;;;4.00;4.00;;;;;21.52;37.56;102411.16;4971613;28;47633;-67
2021/11/24 03:05:17;;;;;;;;;6.75;6.75;;;;;21.56;37.80;102409.94;4969373;28;45619;-66
2021/11/24 03:07:43;;;;;;;;;4.50;4.50;;;;;21.55;37.82;102408.25;4971600;28;45538;-67
2021/11/24 03:10:09;;;;;;;;;6.00;5.00;;;;;21.56;37.86;102409.94;4972387;28;45623;-66
2021/11/24 03:12:35;;;;;;;;;5.00;5.00;;;;;21.46;38.01;102387.91;4973722;28;46229;-65
2021/11/24 03:15:01;;;;;;;;;6.00;6.00;;;;;21.54;37.76;102398.66;4971483;28;45603;-67
2021/11/24 03:17:26;;;;;;;;;6.00;6.00;;;;;21.52;37.90;102392.63;4971453;28;45517;-66
2021/11/24 03:19:52;;;;;;;;;5.50;5.50;;;;;21.45;37.64;102379.13;4970773;28;45485;-66
2021/11/24 03:22:22;;;;;;;;;5.00;5.00;;;;;21.55;37.73;102394.16;4970020;28;47257;-66
2021/11/24 03:24:54;;;;;;;;;5.25;5.00;;;;;21.55;37.92;102384.41;4972513;28;45573;-67
2021/11/24 03:27:40;;;;;;;;;5.50;5.50;;;;;21.56;37.74;102385.25;4972965;28;45327;-67
2021/11/24 03:30:13;;;;;;;;;7.00;6.00;;;;;21.56;37.63;102388.75;4969694;28;45334;-66
2021/11/24 03:32:39;;;;;;;;;5.00;5.00;;;;;21.56;37.52;102390.56;4971224;28;46105;-66
2021/11/24 03:35:05;;;;;;;;;4.75;4.75;;;;;21.47;37.84;102371.03;4971347;28;45798;-66
2021/11/24 03:37:31;;;;;;;;;6.25;4.50;;;;;21.56;37.95;102382.63;4971653;28;45748;-66
2021/11/24 03:39:56;;;;;;;;;7.00;4.75;;;;;21.55;37.42;102379.13;4971441;28;45590;-66
2021/11/24 03:42:22;;;;;;;;;5.00;5.00;;;;;21.45;37.86;102360.59;4972968;28;46020;-66
2021/11/24 03:44:48;;;;;;;;;6.00;6.00;;;;;21.56;37.52;102374.66;4971038;28;45447;-66
2021/11/24 03:47:14;;;;;;;;;5.50;5.50;;;;;21.52;37.33;102368.81;4971234;28;45443;-66
2021/11/24 03:49:39;;;;;;;;;7.75;6.75;;;;;21.56;37.77;102372.03;4971239;28;45376;-67
2021/11/24 03:52:05;;;;;;;;;5.75;5.25;;;;;21.55;37.65;102376.47;4970937;28;46086;-66
2021/11/24 03:54:31;;;;;;;;;4.50;4.50;;;;;21.55;37.63;102367.69;4972913;28;45306;-67
2021/11/24 03:56:57;;;;;;;;;7.00;6.50;;;;;21.50;37.68;102368.94;4972558;28;45438;-66
2021/11/24 03:59:22;;;;;;;;;6.00;6.00;;;;;21.55;37.86;102359.75;4970957;28;45348;-67
2021/11/24 04:01:47;;;;;;;;;7.00;4.75;;;;;21.54;37.76;102350.97;4969492;28;45343;-67
2021/11/24 04:04:13;;;;;;;;;6.00;4.75;;;;;21.55;37.80;102354.44;4971089;28;45343;-66
2021/11/24 04:06:38;;;;;;;;;5.25;5.25;;;;;21.54;37.66;102350.97;4973007;28;45531;-66
2021/11/24 04:09:04;;;;;;;;;6.00;6.00;;;;;21.44;37.71;102332.47;4969351;28;45649;-66
2021/11/24 04:11:30;;;;;;;;;7.50;6.00;;;;;21.46;37.53;102335.78;4989066;28;48183;-67
2021/11/24 04:13:55;;;;;;;;;5.50;5.00;;;;;21.54;37.62;102348.34;4971054;28;45538;-66
2021/11/24 04:16:21;;;;;;;;;6.00;5.00;;;;;21.53;37.20;102341.34;4972261;28;45546;-67
2021/11/24 04:18:50;;;;;;;;;5.00;5.00;;;;;21.53;37.20;102341.34;4975260;28;45502;-66
2021/11/24 04:21:16;;;;;;;;;5.00;5.00;;;;;21.52;37.62;102337.88;4974338;28;46175;-66
2021/11/24 04:23:41;;;;;;;;;6.00;6.00;;;;;21.54;37.57;102334.25;4973244;28;45366;-66
2021/11/24 04:26:07;;;;;;;;;5.50;5.00;;;;;21.52;37.33;102327.28;4973598;28;45769;-67
2021/11/24 04:28:32;;;;;;;;;7.25;6.75;;;;;21.52;37.54;102316.69;4973829;28;45494;-67
2021/11/24 04:30:58;;;;;;;;;5.50;5.50;;;;;21.53;37.66;102325.47;4973938;28;45562;-67
2021/11/24 04:33:23;;;;;;;;;6.75;5.50;;;;;21.53;37.59;102317.53;4975529;28;45345;-67
2021/11/24 04:35:48;;;;;;;;;7.00;4.75;;;;;21.46;37.56;102317.25;4973618;28;45493;-66
2021/11/24 04:38:14;;;;;;;;;6.75;5.00;;;;;21.51;37.50;102314.19;4973225;28;45435;-66
2021/11/24 04:40:40;;;;;;;;;4.50;4.50;;;;;21.52;37.45;102316.69;4971963;28;45516;-66
2021/11/24 04:43:09;;;;;;;;;4.25;4.00;;;;;21.52;37.53;102305.25;4973519;28;45451;-67
2021/11/24 04:45:34;;;;;;;;;6.50;6.00;;;;;21.51;37.38;102312.38;4975456;28;45416;-66
2021/11/24 04:48:00;;;;;;;;;5.50;5.00;;;;;21.49;37.19;102301.06;4971726;28;45620;-66
2021/11/24 04:50:25;;;;;;;;;5.00;5.00;;;;;21.51;37.52;102299.13;4973112;28;46087;-66
2021/11/24 04:52:51;;;;;;;;;5.25;5.25;;;;;21.51;37.44;102300.94;4973221;28;45394;-66
2021/11/24 04:55:16;;;;;;;;;5.50;5.00;;;;;21.50;37.28;102305.41;4973431;28;45264;-66
2021/11/24 04:57:42;;;;;;;;;4.75;3.50;;;;;21.51;37.39;102299.13;4975878;28;45416;-66
2021/11/24 05:00:14;;;;;;;;;5.50;4.75;;;;;21.49;37.55;102298.41;4973180;28;47209;-66
2021/11/24 05:02:39;;;;;;;;;7.25;5.75;;;;;21.50;37.08;102300.09;4973117;28;45555;-66
2021/11/24 05:05:05;;;;;;;;;6.25;6.00;;;;;21.47;37.30;102299.53;4973026;28;45514;-67
2021/11/24 05:07:30;;;;;;;;;5.50;5.00;;;;;21.51;37.29;102304.44;4972899;28;45444;-66
2021/11/24 05:09:56;;;;;;;;;4.75;4.75;;;;;21.51;37.25;102307.06;4973693;28;47187;-67
2021/11/24 05:12:21;;;;;;;;;5.25;4.75;;;;;21.50;37.57;102300.09;4974691;28;45453;-66
2021/11/24 05:14:49;;;;;;;;;5.00;5.00;;;;;21.45;37.08;102293.56;4973111;28;45461;-66
2021/11/24 05:17:17;;;;;;;;;5.75;5.00;;;;;21.42;37.27;102294.66;4972909;28;45425;-66
2021/11/24 05:19:47;;;;;;;;;4.50;4.00;;;;;21.51;37.29;102300.94;4971413;28;46552;-66
2021/11/24 05:22:12;;;;;;;;;4.75;4.75;;;;;21.51;37.15;102301.78;4957196;28;45410;-66
2021/11/24 05:24:38;;;;;;;;;7.00;5.00;;;;;21.52;37.27;102303.44;4975038;28;45372;-66
2021/11/24 05:27:04;;;;;;;;;6.75;5.75;;;;;21.48;37.53;102294.13;4970748;28;45257;-66
2021/11/24 05:29:29;;;;;;;;;6.50;5.00;;;;;21.53;37.12;102298.97;4972633;28;46105;-67
2021/11/24 05:31:54;;;;;;;;;3.00;3.00;;;;;21.55;37.22;102298.81;4972696;28;45306;-66
2021/11/24 05:34:20;;;;;;;;;5.00;5.00;;;;;21.52;37.27;102292.84;4973097;28;45334;-66
2021/11/24 05:36:45;;;;;;;;;5.75;5.75;;;;;21.44;37.14;102276.84;4974442;28;45304;-67
2021/11/24 05:39:11;;;;;;;;;7.00;5.00;;;;;21.47;37.34;102281.00;4973257;28;45298;-66
2021/11/24 05:41:40;;;;;;;;;4.25;4.25;;;;;21.54;37.42;102282.13;4972866;28;45335;-66
2021/11/24 05:44:25;;;;;;;;;5.00;5.00;;;;;21.55;37.12;102283.78;4972864;28;45511;-66
2021/11/24 05:47:00;;;;;;;;;5.00;4.75;;;;;21.55;36.88;102281.13;4972654;28;45298;-66
2021/11/24 05:49:27;;;;;;;;;4.75;4.75;;;;;21.55;37.27;102283.78;4972208;28;46441;-67
2021/11/24 05:51:53;;;;;;;;;4.00;4.00;;;;;21.48;37.29;102266.78;4972480;28;45372;-66
2021/11/24 05:54:19;;;;;;;;;5.00;5.00;;;;;21.47;37.10;102259.81;4973894;28;45569;-66
2021/11/24 05:56:45;;;;;;;;;5.75;4.25;;;;;21.56;37.19;102281.97;4972338;28;45502;-66
2021/11/24 05:59:13;;;;;;;;;4.00;4.00;;;;;21.56;36.65;102287.28;4970753;28;46237;-66
2021/11/24 06:01:38;;;;;;;;;7.00;5.25;;;;;21.51;36.98;102280.59;4971347;28;45383;-67
2021/11/24 06:04:05;;;;;;;;;7.00;6.00;;;;;21.55;36.80;102288.22;4972368;28;45960;-67
2021/11/24 06:06:30;;;;;;;;;8.50;4.75;;;;;21.54;37.09;102287.44;4971917;28;45457;-66
2021/11/24 06:08:56;;;;;;;;;6.25;4.50;;;;;21.55;37.25;102282.94;4972521;28;45714;-66
2021/11/24 06:11:22;;;;;;;;;3.25;3.25;;;;;21.55;37.12;102280.28;4972339;28;45397;-66
2021/11/24 06:13:48;;;;;;;;;4.25;4.25;;;;;21.54;36.67;102276.00;4972488;28;45517;-67
2021/11/24 06:16:13;;;;;;;;;5.50;4.25;;;;;21.51;37.12;102275.31;4972567;28;45289;-66
2021/11/24 06:18:38;;;;;;;;;3.75;3.25;;;;;21.48;36.68;102269.44;4973888;28;45408;-66
2021/11/24 06:21:04;;;;;;;;;5.75;5.50;;;;;21.52;36.92;102290.19;4990486;28;45451;-66
2021/11/24 06:23:29;;;;;;;;;6.00;5.50;;;;;21.52;36.92;102278.75;4972503;28;45387;-66
2021/11/24 06:25:55;;;;;;;;;4.50;4.50;;;;;21.42;36.85;102260.25;4972117;28;45443;-66
2021/11/24 06:28:20;;;;;;;;;5.00;5.00;;;;;21.49;36.89;102268.47;4972058;28;45433;-66
2021/11/24 06:30:45;;;;;;;;;3.75;3.00;;;;;21.51;36.96;102280.59;4973885;28;45371;-66
2021/11/24 06:33:11;;;;;;;;;4.25;4.00;;;;;21.50;36.66;102278.06;4971624;28;45514;-67
2021/11/24 06:35:36;;;;;;;;;4.25;3.00;;;;;21.51;37.12;102280.59;4975953;28;45472;-67
2021/11/24 06:38:02;;;;;;;;;5.75;5.25;;;;;21.48;36.79;102264.97;4969869;28;45635;-67
2021/11/24 06:40:27;;;;;;;;;5.50;5.00;;;;;21.51;37.04;102277.94;4971876;28;45326;-64
2021/11/24 06:42:53;;;;;;;;;6.00;6.00;;;;;21.51;37.04;102279.75;4973161;28;45378;-66
2021/11/24 06:45:18;;;;;;;;;3.00;3.00;;;;;21.50;36.75;102281.56;4970485;28;45545;-66
2021/11/24 06:47:44;;;;;;;;;4.50;4.50;;;;;21.50;37.16;102278.91;4971685;28;47135;-67
2021/11/24 06:50:11;;;;;;;;;4.00;4.00;;;;;21.50;37.05;102286.03;4969900;28;46874;-67
2021/11/24 06:52:37;;;;;;;;;6.50;6.00;;;;;21.49;37.14;102282.53;4972013;28;45406;-67
2021/11/24 06:55:04;;;;;;;;;4.00;4.00;;;;;21.42;37.03;102267.38;4973118;28;45522;-67
2021/11/24 06:57:30;;;;;;;;;4.75;4.75;;;;;21.49;37.00;102279.06;4973981;28;46499;-66
2021/11/24 06:59:55;;;;;;;;;4.00;4.00;;;;;21.49;36.84;102281.72;4971608;28;45529;-66
2021/11/24 07:02:21;;;;;;;;;5.25;5.25;;;;;21.48;37.12;102277.38;4971918;28;45589;-67
2021/11/24 07:04:46;;;;;;;;;4.25;4.25;;;;;21.48;36.92;102280.88;4971760;28;45462;-66
2021/11/24 07:07:12;;;;;;;;;4.25;4.25;;;;;21.39;36.84;102268.50;4956113;28;46882;-64
2021/11/24 07:09:40;;;;;;;;;5.75;4.50;;;;;21.47;36.55;102267.75;4973840;28;45391;-67
2021/11/24 07:12:06;;;;;;;;;2.00;2.00;;;;;21.49;36.93;102277.22;4971372;28;45622;-64
2021/11/24 07:14:31;;;;;;;;;3.00;3.00;;;;;21.48;36.78;102275.56;4971537;28;45498;-66
2021/11/24 07:16:59;;;;;;;;;4.00;4.00;;;;;21.48;37.13;102274.75;4969622;28;46321;-67
2021/11/24 07:19:24;;;;;;;;;5.50;5.00;;;;;21.49;36.53;102268.47;4971584;28;45455;-67
2021/11/24 07:21:50;;;;;;;;;6.00;6.00;;;;;21.50;36.76;102275.44;4972718;28;45438;-68
2021/11/24 07:24:16;;;;;;;;;6.00;4.50;;;;;21.49;37.05;102271.94;4971163;28;45324;-64
2021/11/24 07:26:42;;;;;;;;;4.75;4.75;;;;;21.49;36.75;102274.59;4971172;28;45431;-68
2021/11/24 07:29:08;;;;;;;;;3.75;3.75;;;;;21.46;36.48;102264.28;4971413;28;45509;-67
2021/11/24 07:31:33;;;;;;;;;2.25;2.25;;;;;21.51;37.12;102274.47;4970103;28;45386;-68
2021/11/24 07:33:59;;;;;;;;;5.25;5.00;;;;;21.50;36.86;102270.97;4962288;28;45336;-68
2021/11/24 07:36:24;;;;;;;;;4.00;4.00;;;;;21.51;37.13;102277.09;4970825;28;45431;-67
2021/11/24 07:38:50;;;;;;;;;6.75;4.50;;;;;21.44;36.62;102265.41;4971334;28;45433;-66
2021/11/24 07:41:15;;;;;;;;;6.00;5.00;;;;;21.51;36.76;102272.66;4970684;28;45327;-69
2021/11/24 07:43:40;;;;;;;;;5.25;3.50;;;;;21.52;37.15;102279.59;4970608;28;45497;-68
2021/11/24 07:46:06;;;;;;;;;5.50;5.50;;;;;21.53;37.27;102269.84;4970627;28;46259;-68
2021/11/24 07:48:31;;;;;;;;;6.00;4.00;;;;;21.54;37.21;102270.69;4973209;28;45468;-68
2021/11/24 07:50:56;;;;;;;;;6.75;4.00;;;;;21.53;37.06;102264.56;4973336;28;45438;-67
2021/11/24 07:53:22;;;;;;;;;5.00;5.00;;;;;21.53;37.21;102264.56;4977843;28;45316;-69
2021/11/24 07:55:47;;;;;;;;;6.25;4.50;;;;;21.54;37.34;102257.44;4973374;28;46112;-67
2021/11/24 07:58:14;;;;;;;;;5.25;5.25;;;;;21.52;37.28;102254.94;4965112;28;45375;-69
2021/11/24 08:00:39;;;;;;;;;3.75;3.75;;;;;21.45;37.06;102243.25;4979060;28;45368;-69
2021/11/24 08:03:06;;;;;;;;;4.25;4.25;;;;;21.52;37.44;102250.47;4973600;28;45287;-69
2021/11/24 08:05:31;;;;;;;;;4.75;4.75;;;;;21.51;37.19;102248.81;4971474;28;45573;-69
2021/11/24 08:07:57;;;;;;;;;5.25;5.25;;;;;;;;4967877;28;45578;-68
2021/11/24 08:10:27;;;;;;;;;4.25;4.25;;;;;21.51;37.06;102251.47;4977751;28;45769;-69
2021/11/24 08:12:52;;;;;;;;;7.25;3.75;;;;;21.52;37.20;102247.81;4978559;28;45481;-69
2021/11/24 08:15:18;;;;;;;;;6.75;5.75;;;;;21.50;37.39;102239.19;4977582;28;45753;-69
2021/11/24 08:17:43;;;;;;;;;4.00;4.00;;;;;21.50;36.94;102241.84;4977189;28;45484;-69
2021/11/24 08:20:09;;;;;;;;;6.50;5.50;;;;;21.38;37.23;102224.44;4976551;28;45531;-68
2021/11/24 08:22:35;;;;;;;;;6.25;4.00;;;;;21.50;37.20;102241.84;4977163;28;45509;-66
2021/11/24 08:25:00;;;;;;;;;4.00;4.00;;;;;21.49;37.48;102231.41;4975831;28;46019;-67
2021/11/24 08:27:26;;;;;;;;;5.50;4.75;;;;;21.50;37.01;102238.34;4977893;28;45453;-67
2021/11/24 08:29:52;;;;;;;;;4.00;3.00;;;;;21.45;37.29;102222.91;4977351;28;45855;-66
2021/11/24 08:32:19;;;;;;;;;3.50;3.50;;;;;21.48;36.77;102233.22;4977062;28;45559;-68
2021/11/24 08:34:44;;;;;;;;;5.25;5.25;;;;;21.48;37.22;102230.56;4974527;28;45433;-68
2021/11/24 08:37:09;;;;;;;;;3.75;3.75;;;;;21.49;37.27;102228.75;4976243;28;45528;-68
2021/11/24 08:39:36;;;;;;;;;4.50;4.50;;;;;21.47;37.25;102223.59;4978373;28;45300;-68
2021/11/24 08:42:03;;;;;;;;;4.00;4.00;;;;;21.50;37.05;102227.75;4975404;28;45371;-68
2021/11/24 08:44:28;;;;;;;;;4.50;4.00;;;;;21.40;37.11;102215.38;4976178;28;46366;-68
2021/11/24 08:46:54;;;;;;;;;5.25;4.75;;;;;21.51;36.82;102232.09;4988822;28;45507;-68
2021/11/24 08:49:19;;;;;;;;;5.00;4.75;;;;;21.50;37.05;102231.25;4977011;28;45403;-68
2021/11/24 08:51:44;;;;;;;;;5.00;4.75;;;;;21.50;37.05;102230.41;4979050;28;45300;-68
2021/11/24 08:54:11;;;;;;;;;5.75;4.75;;;;;21.51;36.79;102227.63;4975102;28;51475;-68
2021/11/24 08:56:39;;;;;;;;;3.25;3.25;;;;;21.53;36.71;102222.19;4975778;28;45838;-68
2021/11/24 08:59:06;;;;;;;;;6.00;6.00;;;;;21.54;37.14;102229.16;4974474;28;45527;-68
2021/11/24 09:01:38;;;;;;;;;6.00;4.00;;;;;21.54;36.62;102223.88;4975871;28;45556;-68
2021/11/24 09:04:04;;;;;;;;;6.00;6.00;;;;;21.54;36.90;102231.81;4973093;28;46191;-69
2021/11/24 09:06:30;;;;;;;;;4.00;3.00;;;;;21.53;36.72;102219.53;4974275;28;45334;-68
2021/11/24 09:08:56;;;;;;;;;3.75;3.75;;;;;21.53;37.22;102224.84;4973193;28;45366;-68
2021/11/24 09:11:21;;;;;;;;;4.75;4.75;;;;;21.52;37.05;102216.03;4972992;28;45513;-68
2021/11/24 09:13:47;;;;;;;;;3.75;3.75;;;;;21.51;37.13;102206.44;4971970;28;46060;-69
2021/11/24 09:16:13;;;;;;;;;5.50;5.50;;;;;21.40;36.73;102180.13;4973181;28;45324;-69
2021/11/24 09:18:39;;;;;;;;;4.25;4.25;;;;;21.49;37.08;102191.69;4975027;28;45368;-69
2021/11/24 09:21:05;;;;;;;;;6.75;6.75;;;;;21.51;36.96;102195.00;4971167;28;46025;-67
2021/11/24 09:23:30;;;;;;;;;4.00;4.00;;;;;21.50;36.80;102180.94;4973464;28;46029;-68
2021/11/24 09:28:29;;;;;;;;;4.00;4.00;;;;;21.47;37.07;102181.22;4972610;28;45413;-67
2021/11/24 09:30:55;;;;;;;;;4.25;4.00;;;;;21.50;36.94;102180.94;4973529;28;45320;-67
2021/11/24 09:33:20;;;;;;;;;4.25;4.25;;;;;21.50;36.59;102182.75;4973950;28;45969;-67
2021/11/24 09:35:46;;;;;;;;;4.00;3.00;;;;;21.49;36.88;102181.09;4972806;28;45263;-67
2021/11/24 09:38:12;;;;;;;;;5.25;5.25;;;;;21.48;36.77;102174.97;4972809;28;45490;-69
2021/11/24 09:40:38;;;;;;;;;4.00;4.00;;;;;21.49;37.04;102179.25;4972086;28;45349;-69
2021/11/24 09:43:06;;;;;;;;;7.25;7.25;;;;;21.50;36.85;102172.16;4972034;28;45317;-68
2021/11/24 09:45:33;;;;;;;;;4.00;4.00;;;;;21.49;36.82;102175.78;4973154;28;45384;-66
2021/11/24 09:48:00;;;;;;;;;3.00;3.00;;;;;21.44;36.63;102168.28;4972695;28;45363;-68
2021/11/24 09:50:30;;;;;;;;;2.25;2.25;;;;;21.50;36.70;102177.44;4972408;28;45552;-69
2021/11/24 09:52:57;;;;;;;;;3.00;3.00;;;;;21.48;36.92;102179.41;4971120;28;45537;-68
2021/11/24 09:55:24;;;;;;;;;3.75;3.75;;;;;21.49;36.61;102178.44;4970832;28;45678;-68
2021/11/24 09:57:51;;;;;;;;;3.75;3.25;;;;;21.49;36.70;102179.25;4973767;28;45281;-69
2021/11/24 10:00:17;;;;;;;;;4.00;3.25;;;;;21.48;36.77;102172.31;4972171;28;45281;-68
2021/11/24 10:02:44;;;;;;;;;7.00;6.75;;;;;21.39;36.83;102159.94;4972001;28;47184;-69
2021/11/24 10:05:09;;;;;;;;;5.25;4.00;;;;;21.47;36.47;102165.31;4972281;28;45372;-68
2021/11/24 10:07:35;;;;;;;;;7.00;4.25;;;;;21.43;36.71;102158.66;4972489;28;45488;-69
2021/11/24 10:10:00;;;;;;;;;4.50;4.50;;;;;21.36;36.78;102146.97;4972488;28;45363;-67
2021/11/24 10:12:26;;;;;;;;;5.50;5.50;;;;;;;;4973418;28;45593;-68
2021/11/24 10:14:51;;;;;;;;;5.00;4.75;;;;;21.50;36.52;102151.81;4971633;28;45400;-67
2021/11/24 10:17:25;;;;;;;;;4.00;3.75;;;;;21.50;36.58;102150.97;4969505;28;45366;-69
2021/11/24 10:20:08;;;;;;;;;3.75;3.50;;;;;21.50;36.62;102143.84;4968892;28;45532;-68
2021/11/24 10:22:36;;;;;;;;;5.75;4.75;;;;;21.51;36.57;102145.53;4958742;28;46381;-69
2021/11/24 10:25:15;;;;;;;;;4.50;4.50;;;;;21.53;35.86;102140.09;4971213;28;45329;-69
2021/11/24 10:27:48;;;;;;;;;5.75;5.00;;;;;21.53;36.42;102140.09;4974578;28;45335;-68
2021/11/24 10:30:26;;;;;;;;;4.00;4.00;;;;;21.48;36.15;102129.94;4971330;28;45497;-68
2021/11/24 10:32:52;;;;;;;;;5.00;5.00;;;;;21.52;36.26;102136.59;4970388;28;45316;-69
2021/11/24 10:35:26;;;;;;;;;4.75;4.00;;;;;21.50;36.59;102130.63;4971714;28;45483;-68
2021/11/24 10:38:11;;;;;;;;;6.00;4.50;;;;;21.50;36.42;102113.91;4970729;28;45493;-68
2021/11/24 10:40:46;;;;;;;;;3.50;3.50;;;;;21.50;36.33;102124.47;4971812;28;45415;-68
2021/11/24 10:43:13;;;;;;;;;6.00;5.50;;;;;21.42;36.31;102101.38;4971816;28;47909;-69
2021/11/24 10:45:50;;;;;;;;;6.75;3.75;;;;;21.49;36.05;102115.69;4973911;28;45424;-69
2021/11/24 10:48:24;;;;;;;;;4.50;4.25;;;;;21.49;36.65;102102.47;4971377;28;45415;-68
2021/11/24 10:50:50;;;;;;;;;4.75;4.75;;;;;21.39;36.20;102085.81;4971826;28;45548;-68
2021/11/24 10:53:22;;;;;;;;;5.00;4.00;;;;;21.48;36.30;102084.94;4971655;28;45931;-69
2021/11/24 10:55:48;;;;;;;;;4.00;4.00;;;;;21.46;36.42;102086.06;4971395;28;45331;-69
2021/11/24 10:58:18;;;;;;;;;6.00;6.00;;;;;21.47;36.21;102085.88;4971247;28;45468;-69
2021/11/24 11:00:53;;;;;;;;;2.75;2.75;;;;;21.48;36.33;102076.97;4970057;28;45495;-67
2021/11/24 11:03:21;;;;;;;;;5.50;5.25;;;;;21.48;36.26;102073.50;4972733;28;47094;-67
2021/11/24 11:05:53;;;;;;;;;4.75;3.00;;;;;21.48;36.53;102066.38;4971401;28;45517;-67
2021/11/24 11:08:19;;;;;;;;;5.00;4.00;;;;;21.49;35.90;102064.59;4970307;28;45346;-69
2021/11/24 11:10:48;;;;;;;;;5.75;5.75;;;;;21.39;36.32;102048.75;4970243;28;45412;-69
2021/11/24 11:13:17;;;;;;;;;4.00;3.00;;;;;21.49;35.91;102062.75;4967289;28;46533;-66
2021/11/24 11:15:54;;;;;;;;;5.00;5.00;;;;;21.48;36.50;102055.78;4968192;28;45471;-67
2021/11/24 11:18:32;;;;;;;;;6.00;5.00;;;;;21.48;36.27;102050.50;4972670;28;45306;-67
2021/11/24 11:21:09;;;;;;;;;5.75;5.25;;;;;21.46;36.42;102041.88;4971469;28;45481;-67
2021/11/24 11:23:36;;;;;;;;;5.25;5.00;;;;;21.42;36.28;102032.53;4971128;28;46215;-69
2021/11/24 11:26:08;;;;;;;;;4.25;4.25;;;;;21.47;36.16;102032.94;4988117;28;45437;-68